createdAt,value
2024-05-09T00:03:17.841Z,99.90
2024-05-09T00:08:46.549Z,99.90
2024-05-09T00:14:14.567Z,99.90
2024-05-09T00:19:44.233Z,99.90
2024-05-09T00:25:12.284Z,99.90
2024-05-09T00:30:40.728Z,99.90
2024-05-09T00:36:08.839Z,99.90
2024-05-09T00:41:37.005Z,99.90
2024-05-09T00:47:05.473Z,99.90
2024-05-09T00:52:33.766Z,99.90
2024-05-09T00:58:03.217Z,99.90
2024-05-09T01:03:31.387Z,99.90
2024-05-09T01:08:59.526Z,99.90
2024-05-09T01:14:27.549Z,99.90
2024-05-09T01:19:55.610Z,99.90
2024-05-09T01:25:23.595Z,99.90
2024-05-09T01:30:51.636Z,99.90
2024-05-09T01:36:19.721Z,99.90
2024-05-09T01:41:47.682Z,99.90
2024-05-09T01:47:15.799Z,99.90
2024-05-09T01:52:43.904Z,99.90
2024-05-09T01:58:11.979Z,99.90
2024-05-09T02:03:40.038Z,99.90
2024-05-09T02:09:09.064Z,99.90
2024-05-09T02:14:37.005Z,99.90
2024-05-09T02:20:06.291Z,99.90
2024-05-09T02:25:34.929Z,99.90
2024-05-09T02:31:02.992Z,99.90
2024-05-09T02:36:30.930Z,99.90
2024-05-09T02:41:58.835Z,99.90
2024-05-09T02:47:26.860Z,99.90
2024-05-09T02:52:54.920Z,99.90
2024-05-09T02:58:22.903Z,99.90
2024-05-09T03:03:52.368Z,99.90
2024-05-09T03:09:21.715Z,99.90
2024-05-09T03:14:50.964Z,99.90
2024-05-09T03:20:23.852Z,99.90
2024-05-09T03:25:55.739Z,99.90
2024-05-09T03:31:23.963Z,99.90
2024-05-09T03:36:52.167Z,99.90
2024-05-09T03:42:20.133Z,99.90
2024-05-09T03:47:48.403Z,99.90
2024-05-09T03:53:16.967Z,99.90
2024-05-09T03:58:48.245Z,99.90
2024-05-09T04:04:16.368Z,99.90
2024-05-09T04:09:44.335Z,99.90
2024-05-09T04:15:13.679Z,99.90
2024-05-09T04:20:41.910Z,99.90
2024-05-09T04:26:10.074Z,99.90
2024-05-09T04:31:38.270Z,99.90
2024-05-09T04:37:07.244Z,99.90
2024-05-09T04:42:35.281Z,99.90
2024-05-09T04:48:03.811Z,99.90
2024-05-09T04:53:32.075Z,99.90
2024-05-09T04:59:00.221Z,99.90
2024-05-09T05:04:28.294Z,99.90
2024-05-09T05:09:56.358Z,99.90
2024-05-09T05:15:24.549Z,99.90
2024-05-09T05:20:52.754Z,99.90
2024-05-09T05:26:21.174Z,99.90
2024-05-09T05:31:49.182Z,99.90
2024-05-09T05:37:18.281Z,99.90
2024-05-09T05:42:46.315Z,99.90
2024-05-09T05:48:18.224Z,99.90
2024-05-09T05:53:46.538Z,99.90
2024-05-09T05:59:15.616Z,99.90
2024-05-09T06:04:43.919Z,99.90
2024-05-09T06:10:17.593Z,99.90
2024-05-09T06:16:47.668Z,99.90
2024-05-09T06:22:15.919Z,99.90
2024-05-09T06:27:43.902Z,99.90
2024-05-09T06:33:15.135Z,99.90
2024-05-09T06:38:44.715Z,99.90
2024-05-09T06:44:12.728Z,99.90
2024-05-09T06:49:41.580Z,99.90
2024-05-09T06:55:10.630Z,99.90
2024-05-09T07:00:41.117Z,99.90
2024-05-09T07:06:10.554Z,99.90
2024-05-09T07:11:38.817Z,99.90
2024-05-09T07:17:06.973Z,99.90
2024-05-09T07:22:35.150Z,99.90
2024-05-09T07:28:04.847Z,99.90
2024-05-09T07:33:33.400Z,99.90
2024-05-09T07:39:01.674Z,99.90
2024-05-09T07:44:30.772Z,99.90
2024-05-09T07:51:33.060Z,99.90
2024-05-09T07:55:47.162Z,99.60
2024-05-09T08:01:15.618Z,99.40
2024-05-09T08:06:43.940Z,99.10
2024-05-09T08:12:13.806Z,98.90
2024-05-09T08:17:41.822Z,98.60
2024-05-09T08:23:11.769Z,98.00
2024-05-09T08:28:42.480Z,97.50
2024-05-09T08:34:11.196Z,97.20
2024-05-09T08:39:40.341Z,97.00
2024-05-09T08:45:13.917Z,97.10
2024-05-09T08:50:42.486Z,96.80
2024-05-09T08:56:12.848Z,96.10
2024-05-09T09:01:43.548Z,95.40
2024-05-09T09:07:12.056Z,95.30
2024-05-09T09:12:40.879Z,94.70
2024-05-09T09:18:12.150Z,94.50
2024-05-09T09:23:40.897Z,94.40
2024-05-09T09:29:09.421Z,94.20
2024-05-09T09:34:37.748Z,93.90
2024-05-09T09:40:12.831Z,93.80
2024-05-09T09:45:43.840Z,93.50
2024-05-09T09:51:13.087Z,93.20
2024-05-09T09:56:44.762Z,92.70
2024-05-09T10:02:14.314Z,92.40
2024-05-09T10:07:44.080Z,92.10
2024-05-09T10:13:12.239Z,92.00
2024-05-09T10:18:41.876Z,91.80
2024-05-09T10:24:10.253Z,91.70
2024-05-09T10:29:38.212Z,91.30
2024-05-09T10:35:12.041Z,90.70
2024-05-09T10:40:42.006Z,90.30
2024-05-09T10:46:11.897Z,90.00
2024-05-09T10:51:41.682Z,89.90
2024-05-09T10:57:16.436Z,89.80
2024-05-09T11:02:45.580Z,89.20
2024-05-09T11:08:14.167Z,89.00
2024-05-09T11:13:42.515Z,88.40
2024-05-09T11:19:14.884Z,88.40
2024-05-09T11:24:43.488Z,88.10
2024-05-09T11:30:29.580Z,87.90
2024-05-09T11:36:00.116Z,87.80
2024-05-09T11:41:31.323Z,87.50
2024-05-09T11:46:59.632Z,87.50
2024-05-09T11:52:27.938Z,86.90
2024-05-09T11:57:56.824Z,86.60
2024-05-09T12:03:25.350Z,86.20
2024-05-09T12:08:53.633Z,86.10
2024-05-09T12:14:21.971Z,85.70
2024-05-09T12:19:52.825Z,85.00
2024-05-09T12:25:21.216Z,84.40
2024-05-09T12:30:50.865Z,83.40
2024-05-09T12:36:19.094Z,83.10
2024-05-09T12:41:48.095Z,82.40
2024-05-09T12:47:16.222Z,82.00
2024-05-09T12:52:44.422Z,81.60
2024-05-09T12:58:13.769Z,81.40
2024-05-09T13:03:42.128Z,80.40
2024-05-09T13:09:12.180Z,80.90
2024-05-09T13:14:40.185Z,80.40
2024-05-09T13:20:14.889Z,80.30
2024-05-09T13:25:47.031Z,80.50
2024-05-09T13:31:15.384Z,79.90
2024-05-09T13:36:43.612Z,80.10
2024-05-09T13:42:12.468Z,79.40
2024-05-09T13:47:40.714Z,79.10
2024-05-09T13:53:09.234Z,79.00
2024-05-09T13:58:37.351Z,79.00
2024-05-09T14:04:06.429Z,78.90
2024-05-09T14:09:34.742Z,78.70
2024-05-09T14:15:02.951Z,78.50
2024-05-09T14:20:32.388Z,77.50
2024-05-09T14:26:00.746Z,77.60
2024-05-09T14:31:28.970Z,76.70
2024-05-09T14:36:58.951Z,76.20
2024-05-09T14:42:28.648Z,76.90
2024-05-09T14:47:56.886Z,72.50
2024-05-09T14:53:26.609Z,72.10
2024-05-09T14:58:55.491Z,73.70
2024-05-09T15:04:23.779Z,74.50
2024-05-09T15:09:51.980Z,74.50
2024-05-09T15:15:20.491Z,74.60
2024-05-09T15:20:49.456Z,74.40
2024-05-09T15:26:17.910Z,74.00
2024-05-09T15:31:46.390Z,73.90
2024-05-09T15:37:14.824Z,73.40
2024-05-09T15:42:43.350Z,73.00
2024-05-09T15:48:11.987Z,72.80
2024-05-09T15:53:40.954Z,72.10
2024-05-09T15:59:09.212Z,72.10
2024-05-09T16:04:39.189Z,72.40
2024-05-09T16:10:11.061Z,72.00
2024-05-09T16:15:41.390Z,71.90
2024-05-09T16:21:09.441Z,71.60
2024-05-09T16:26:37.528Z,71.60
2024-05-09T16:32:06.586Z,71.50
2024-05-09T16:37:34.989Z,71.80
2024-05-09T16:43:07.020Z,71.60
2024-05-09T16:48:36.612Z,71.50
2024-05-09T16:54:04.949Z,71.80
2024-05-09T16:59:33.255Z,71.90
2024-05-09T17:05:01.590Z,72.10
2024-05-09T17:10:33.553Z,72.10
2024-05-09T17:16:03.762Z,71.90
2024-05-09T17:21:31.822Z,71.80
2024-05-09T17:27:00.729Z,71.70
2024-05-09T17:32:28.925Z,71.80
2024-05-09T17:37:58.351Z,71.90
2024-05-09T17:43:26.622Z,71.90
2024-05-09T17:48:58.808Z,71.80
2024-05-09T17:54:28.633Z,71.90
2024-05-09T17:59:56.796Z,71.80
2024-05-09T18:05:25.533Z,71.50
2024-05-09T18:10:55.351Z,71.60
2024-05-09T18:16:24.130Z,71.70
2024-05-09T18:21:53.721Z,71.60
2024-05-09T18:27:22.177Z,72.20
2024-05-09T18:32:50.307Z,71.70
2024-05-09T18:38:19.158Z,71.80
2024-05-09T18:43:50.474Z,72.50
2024-05-09T18:49:19.399Z,72.00
2024-05-09T18:54:48.094Z,72.10
2024-05-09T19:00:26.058Z,72.20
2024-05-09T19:05:59.568Z,72.30
2024-05-09T19:11:27.728Z,72.50
2024-05-09T19:17:00.356Z,72.60
2024-05-09T19:22:28.629Z,72.70
2024-05-09T19:27:57.210Z,72.90
2024-05-09T19:33:26.195Z,73.10
2024-05-09T19:38:54.351Z,73.30
2024-05-09T19:44:22.463Z,73.40
2024-05-09T19:49:50.701Z,73.60
2024-05-09T19:55:19.038Z,73.90
2024-05-09T20:00:47.992Z,74.20
2024-05-09T20:06:16.198Z,74.40
2024-05-09T20:11:44.154Z,74.70
2024-05-09T20:17:12.477Z,74.80
2024-05-09T20:22:40.606Z,75.10
2024-05-09T20:28:08.881Z,75.30
2024-05-09T20:33:38.222Z,75.60
2024-05-09T20:39:06.699Z,75.70
2024-05-09T20:44:36.441Z,76.00
2024-05-09T20:50:11.381Z,76.20
2024-05-09T20:55:45.267Z,76.50
2024-05-09T21:01:13.802Z,76.70
2024-05-09T21:06:42.190Z,76.90
2024-05-09T21:12:10.438Z,77.00
2024-05-09T21:17:38.653Z,77.30
2024-05-09T21:23:07.461Z,77.50
2024-05-09T21:28:36.363Z,77.70
2024-05-09T21:34:04.620Z,77.80
2024-05-09T21:39:33.003Z,77.90
2024-05-09T21:45:03.307Z,78.10
2024-05-09T21:50:38.708Z,78.30
2024-05-09T21:56:10.011Z,78.40
2024-05-09T22:01:38.787Z,78.60
2024-05-09T22:07:09.285Z,78.80
2024-05-09T22:12:37.348Z,78.90
2024-05-09T22:18:06.397Z,79.00
2024-05-09T22:23:34.781Z,79.10
2024-05-09T22:29:02.903Z,79.30
2024-05-09T22:34:31.165Z,80.60
2024-05-09T22:39:59.565Z,80.70
2024-05-09T22:45:27.602Z,80.80
2024-05-09T22:50:55.656Z,80.90
2024-05-09T22:56:28.447Z,81.00
2024-05-09T23:01:56.626Z,81.20
2024-05-09T23:07:25.221Z,81.30
2024-05-09T23:12:53.389Z,81.50
2024-05-09T23:18:21.509Z,81.60
2024-05-09T23:23:49.577Z,81.80
2024-05-09T23:29:17.664Z,81.90
2024-05-09T23:34:45.862Z,82.00
2024-05-09T23:40:18.660Z,82.20
2024-05-09T23:45:47.409Z,82.20
2024-05-09T23:51:15.523Z,82.40
2024-05-09T23:56:43.510Z,82.40
